サルヴァドール国際空港の過去48時間の天気

サルヴァドール国際空港 (Salvador Aeroporto )

現在時刻: 3/6 11:29 -03 (3/6 14:29 UTC) 以下の時間は現地時間です。

過去48時間のMETAR気象情報
時間 風向 風速(m/s) 視程 気温(℃) 湿度(%) 気圧(hPa) 天気現象
6 11:00 7 10km以上 30 62 1013
6 10:00 東北東 6 10km以上 30 55 1013
6 09:00 北東 4 10km以上 28 66 1014
6 08:00 3 10km以上 27 74 1013
6 07:00 北西 2 10km以上 25 83 1013
6 06:00 静穏 0 10km以上 24 83 1012
6 05:00 西 2 10km以上 23 89 1012
6 04:00 西南西 2 10km以上 24 83 1011
6 03:00 西 1 10km以上 24 83 1011
6 02:00 北北西 2 10km以上 24 83 1011
6 01:00 2 10km以上 25 78 1011
6 00:00 東北東 5 10km以上 26 74 1011
5 23:00 東北東 6 10km以上 26 74 1012
5 22:00 東北東 5 10km以上 26 74 1012
5 21:00 5 10km以上 27 66 1011
5 20:00 5 10km以上 27 70 1011
5 19:00 5 10km以上 27 66 1011
5 18:00 5 10km以上 28 62 1010
5 17:00 5 10km以上 28 66 1010
SBSV 061400Z 08014KT 9999 SCT020 30/22 Q1013
SBSV 061300Z 07011KT 9999 SCT020 30/20 Q1013
SBSV 061200Z 04007KT 360V070 9999 SCT020 28/21 Q1014
SBSV 061100Z 36006KT 9999 FEW020 27/22 Q1013
SBSV 061000Z 32003KT 9999 SCT023 25/22 Q1013
SBSV 060900Z 00000KT 9999 FEW023 24/21 Q1012
SBSV 060800Z 28003KT 9999 FEW020 23/21 Q1012
SBSV 060700Z 25003KT 260V330 9999 FEW020 24/21 Q1011
SBSV 060600Z 28002KT 9999 FEW020 24/21 Q1011
SBSV 060500Z 34003KT 9999 FEW020 24/21 Q1011
SBSV 060400Z 35003KT 9999 FEW020 25/21 Q1011
SBSV 060300Z 06009KT 9999 FEW023 26/21 Q1011
SBSV 060200Z 07011KT 9999 FEW023 26/21 Q1012
SBSV 060100Z 07010KT 9999 FEW023 26/21 Q1012
SBSV 060000Z 08010KT 9999 FEW023 27/20 Q1011
SBSV 052300Z 09009KT 9999 FEW020 27/21 Q1011
SBSV 052200Z 09009KT 9999 FEW020 27/20 Q1011
SBSV 052100Z 09009KT 9999 FEW020 28/20 Q1010
SBSV 052000Z 10010KT 9999 FEW020 28/21 Q1010